Time;durP1;ratioP1;P1;durP2;ratioP2;P2;SDS_P1;SDS_P2;PMS_P1;PMS_P2;Temp;Humidity;BMP_temperature;BMP_pressure;BME280_temperature;BME280_humidity;BME280_pressure;Samples;Min_cycle;Max_cycle;Signal;HPM_P1;HPM_P2
2022/10/31 00:01:47;;;;;;;17.60;11.30;;;;;;;12.50;75.66;100430.77;100385;1290;138438;-74
2022/10/31 00:04:14;;;;;;;17.00;10.30;;;;;;;12.47;75.76;100426.55;101596;1295;107459;-75
2022/10/31 00:06:41;;;;;;;18.90;10.60;;;;;;;12.44;75.90;100428.93;101533;1290;140196;-75
2022/10/31 00:09:10;;;;;;;17.40;11.80;;;;;;;12.42;76.05;100430.03;101586;1289;108622;-74
2022/10/31 00:11:37;;;;;;;21.30;12.20;;;;;;;12.42;76.12;100431.98;101230;1289;94678;-75
2022/10/31 00:14:04;;;;;;;20.90;12.30;;;;;;;12.40;76.15;100435.52;99952;1289;138651;-74
2022/10/31 00:16:32;;;;;;;22.70;12.90;;;;;;;12.38;76.27;100434.52;100030;1285;106589;-74
2022/10/31 00:19:01;;;;;;;20.80;12.60;;;;;;;12.36;76.43;100436.14;99979;1296;137867;-75
2022/10/31 00:21:29;;;;;;;24.30;13.30;;;;;;;12.32;76.57;100435.44;100068;1294;107112;-75
2022/10/31 00:23:57;;;;;;;20.80;12.10;;;;;;;12.29;76.71;100432.77;100034;1278;96496;-74
2022/10/31 00:26:24;;;;;;;18.40;12.00;;;;;;;12.26;76.84;100431.66;101304;1285;138400;-75
2022/10/31 00:28:51;;;;;;;18.30;12.40;;;;;;;12.24;76.91;100431.95;101607;1294;106540;-75
2022/10/31 00:31:18;;;;;;;18.70;12.10;;;;;;;12.23;77.06;100436.66;101488;1289;139891;-74
2022/10/31 00:33:46;;;;;;;18.00;12.70;;;;;;;12.23;77.15;100438.95;101615;1288;106866;-75
2022/10/31 00:36:18;;;;;;;21.10;12.50;;;;;;;12.22;77.13;100437.75;101511;1295;94687;-75
2022/10/31 00:38:46;;;;;;;19.80;12.40;;;;;;;12.21;77.21;100434.63;101205;1287;110287;-75
2022/10/31 00:41:14;;;;;;;20.60;13.40;;;;;;;12.20;77.24;100433.95;100024;1289;107482;-74
2022/10/31 00:43:41;;;;;;;21.80;13.40;;;;;;;12.17;77.26;100435.83;99931;1289;137811;-74
2022/10/31 00:46:08;;;;;;;20.10;12.90;;;;;;;12.13;77.33;100441.02;99956;1294;107590;-74
2022/10/31 00:48:35;;;;;;;20.50;13.10;;;;;;;12.11;77.43;100441.10;99946;1285;138830;-75
2022/10/31 00:51:02;;;;;;;21.40;13.60;;;;;;;12.08;77.53;100444.49;99961;1287;108879;-75
2022/10/31 00:53:29;;;;;;;25.30;15.20;;;;;;;12.06;77.52;100447.90;100058;1289;106195;-75
2022/10/31 00:55:56;;;;;;;23.60;16.20;;;;;;;12.02;77.40;100449.08;99902;1288;140249;-75
2022/10/31 00:58:23;;;;;;;26.50;17.80;;;;;;;11.96;77.36;100444.94;99976;1288;108085;-75
2022/10/31 01:00:54;;;;;;;26.80;17.90;;;;;;;11.91;77.51;100445.10;99852;1288;138589;-75
2022/10/31 01:03:22;;;;;;;26.70;18.30;;;;;;;11.87;77.52;100441.94;100024;1282;110608;-74
2022/10/31 01:05:58;;;;;;;27.30;17.60;;;;;;;11.84;77.67;100439.08;99946;1288;107455;-75
2022/10/31 01:08:25;;;;;;;29.00;19.00;;;;;;;11.78;77.73;100439.27;99913;1289;140052;-74
2022/10/31 01:11:06;;;;;;;31.20;19.90;;;;;;;11.72;77.82;100441.02;99839;1289;107201;-75
2022/10/31 01:13:33;;;;;;;34.60;20.40;;;;;;;11.69;77.78;100442.34;99825;1287;138620;-75
2022/10/31 01:16:02;;;;;;;31.30;21.40;;;;;;;11.65;77.96;100441.07;99962;1289;110430;-75
2022/10/31 01:18:31;;;;;;;29.90;21.20;;;;;;;11.62;78.05;100444.13;99878;1289;140858;-75
2022/10/31 01:21:03;;;;;;;33.30;22.80;;;;;;;11.58;78.11;100445.86;100050;1289;97147;-74
2022/10/31 01:23:31;;;;;;;34.20;23.00;;;;;;;11.52;78.21;100449.55;100000;1288;109047;-75
2022/10/31 01:26:10;;;;;;;30.50;21.50;;;;;;;11.47;78.34;100449.31;99931;1289;138629;-74
2022/10/31 01:28:45;;;;;;;35.60;23.60;;;;;;;11.43;78.44;100453.09;100128;1286;109709;-74
2022/10/31 01:31:12;;;;;;;30.30;21.70;;;;;;;11.38;78.50;100449.10;99934;1287;138464;-74
2022/10/31 01:33:39;;;;;;;35.50;22.80;;;;;;;11.33;78.63;100452.05;100022;1289;96863;-75
2022/10/31 01:36:18;;;;;;;30.80;21.50;;;;;;;11.30;79.02;100450.91;100065;1289;105830;-75
2022/10/31 01:38:50;;;;;;;29.80;20.70;;;;;;;11.29;79.07;100451.13;100010;1287;96455;-75
2022/10/31 01:41:20;;;;;;;31.00;20.40;;;;;;;11.27;79.21;100450.86;99975;1281;109803;-75
2022/10/31 01:43:50;;;;;;;32.20;19.60;;;;;;;11.26;79.37;100452.96;99812;1281;139611;-74
2022/10/31 01:46:20;;;;;;;30.40;20.20;;;;;;;11.25;79.48;100452.48;99912;1288;96493;-75
2022/10/31 01:48:48;;;;;;;27.00;20.00;;;;;;;11.23;79.54;100452.03;99932;1284;138286;-75
2022/10/31 01:51:20;;;;;;;28.70;19.10;;;;;;;11.22;79.69;100460.05;100012;1288;96343;-74
2022/10/31 01:53:47;;;;;;;29.90;20.40;;;;;;;11.22;79.87;100461.11;99935;1281;109256;-75
2022/10/31 01:56:17;;;;;;;27.00;20.00;;;;;;;11.22;79.85;100458.69;99940;1286;138811;-75
2022/10/31 01:58:46;;;;;;;28.80;19.20;;;;;;;11.22;79.88;100450.15;100089;1288;96472;-74
2022/10/31 02:01:17;;;;;;;26.40;17.80;;;;;;;11.22;79.97;100451.38;99865;1292;140426;-74
2022/10/31 02:03:46;;;;;;;26.90;19.60;;;;;;;11.22;79.98;100451.52;99968;1288;96451;-74
2022/10/31 02:06:27;;;;;;;28.20;19.70;;;;;;;11.22;79.90;100452.77;99948;1295;109626;-74
2022/10/31 02:08:55;;;;;;;24.40;18.50;;;;;;;11.20;79.77;100453.86;100013;1289;106672;-75
2022/10/31 02:11:22;;;;;;;26.00;17.70;;;;;;;11.17;79.96;100456.74;100056;1294;96479;-75
2022/10/31 02:13:49;;;;;;;24.70;16.20;;;;;;;11.16;80.09;100457.27;99890;1295;137939;-75
2022/10/31 02:16:16;;;;;;;23.40;16.00;;;;;;;11.16;80.09;100455.40;99986;1288;96509;-75
2022/10/31 02:18:43;;;;;;;23.80;15.00;;;;;;;11.14;80.10;100454.06;99832;1289;141034;-75
2022/10/31 02:21:16;;;;;;;22.70;15.50;;;;;;;11.13;80.17;100454.42;99924;1284;108945;-75
2022/10/31 02:24:15;;;;;;;23.40;14.80;;;;;;;11.14;80.16;100455.11;99989;1288;96948;-75
2022/10/31 02:26:58;;;;;;;22.00;14.70;;;;;;;11.13;80.13;100447.98;99980;1289;108604;-75
2022/10/31 02:30:03;;;;;;;21.00;14.00;;;;;;;11.13;80.02;100448.15;101548;1281;95408;-75
2022/10/31 02:32:42;;;;;;;25.50;14.50;;;;;;;11.12;79.86;100451.83;99893;1289;137745;-75
2022/10/31 02:35:14;;;;;;;21.80;14.30;;;;;;;11.11;79.98;100453.80;99974;1288;107458;-75
2022/10/31 02:37:49;;;;;;;24.00;16.30;;;;;;;11.06;79.95;100455.52;99800;1282;137560;-75
2022/10/31 02:40:23;;;;;;;22.20;14.70;;;;;;;11.02;79.97;100457.05;100029;1288;108406;-75
2022/10/31 02:43:21;;;;;;;19.00;13.50;;;;;;;10.98;80.03;100454.02;99789;1288;139072;-75
2022/10/31 02:45:55;;;;;;;19.70;13.50;;;;;;;10.97;80.13;100452.34;99978;1281;107786;-75
2022/10/31 02:48:28;;;;;;;18.70;13.80;;;;;;;10.95;80.18;100455.33;99871;1283;138574;-76
2022/10/31 02:51:00;;;;;;;18.50;13.70;;;;;;;10.93;80.24;100459.39;99983;1281;96521;-75
2022/10/31 02:53:27;;;;;;;25.00;14.20;;;;;;;10.94;80.28;100458.49;99931;1296;107422;-73
2022/10/31 02:56:05;;;;;;;19.80;13.50;;;;;;;10.93;80.29;100458.35;99868;1294;137557;-73
2022/10/31 02:58:36;;;;;;;23.20;15.00;;;;;;;10.90;80.26;100462.41;100029;1294;109638;-73
2022/10/31 03:01:38;;;;;;;21.70;14.70;;;;;;;10.88;80.36;100464.56;99908;1295;137832;-74
2022/10/31 03:04:31;;;;;;;22.50;14.90;;;;;;;10.84;80.47;100472.34;101025;1300;94777;-73
2022/10/31 03:07:05;;;;;;;24.10;15.90;;;;;;;10.78;80.47;100473.23;101042;1294;140475;-74
2022/10/31 03:09:41;;;;;;;20.80;15.20;;;;;;;10.77;80.77;100477.80;101123;1294;94977;-74
2022/10/31 03:12:14;;;;;;;25.10;15.60;;;;;;;10.75;80.92;100481.48;101116;1300;110177;-74
2022/10/31 03:14:49;;;;;;;22.20;15.20;;;;;;;10.74;80.82;100483.94;101076;1285;106932;-74
2022/10/31 03:17:22;;;;;;;23.80;15.20;;;;;;;10.72;81.07;100484.34;100067;1294;96566;-74
2022/10/31 03:19:52;;;;;;;20.90;14.80;;;;;;;10.73;81.07;100485.02;99385;1287;138395;-74
2022/10/31 03:22:23;;;;;;;27.30;16.50;;;;;;;10.74;81.07;100487.09;99547;1291;96412;-73
2022/10/31 03:24:51;;;;;;;20.80;15.10;;;;;;;10.74;81.13;100487.42;99499;1292;138203;-74
2022/10/31 03:27:23;;;;;;;23.50;16.30;;;;;;;10.73;81.24;100492.52;99530;1295;106745;-74
2022/10/31 03:29:53;;;;;;;23.80;16.10;;;;;;;10.74;81.15;100498.72;99599;1287;97065;-74
2022/10/31 03:32:25;;;;;;;26.60;16.40;;;;;;;10.73;81.11;100498.23;99368;1293;138405;-74
2022/10/31 03:34:56;;;;;;;22.50;15.50;;;;;;;10.73;81.08;100501.55;99501;1294;95097;-74
2022/10/31 03:37:24;;;;;;;26.90;16.80;;;;;;;10.73;81.22;100503.10;101014;1274;138677;-74
2022/10/31 03:39:53;;;;;;;24.00;17.10;;;;;;;10.72;81.19;100498.27;101051;1300;106704;-73
2022/10/31 03:42:25;;;;;;;20.80;15.80;;;;;;;10.70;81.17;100500.08;101331;1289;95938;-74
2022/10/31 03:44:57;;;;;;;22.80;16.90;;;;;;;10.68;81.14;100503.45;101559;1296;107038;-74
2022/10/31 03:47:27;;;;;;;22.80;16.60;;;;;;;10.66;81.09;100505.92;101539;1289;94688;-74
2022/10/31 03:49:54;;;;;;;25.10;17.60;;;;;;;10.63;81.03;100504.46;101468;1288;138476;-74
2022/10/31 03:52:29;;;;;;;22.70;16.00;;;;;;;10.60;81.07;100499.84;101569;1289;106911;-75
2022/10/31 03:54:59;;;;;;;25.50;16.70;;;;;;;10.58;81.16;100497.77;101424;1294;139490;-75
2022/10/31 03:57:33;;;;;;;23.30;16.20;;;;;;;10.57;81.16;100497.83;101556;1289;107632;-75
2022/10/31 04:00:06;;;;;;;23.30;16.40;;;;;;;10.54;81.16;100498.10;101595;1296;94551;-75
2022/10/31 04:02:48;;;;;;;22.60;15.90;;;;;;;10.53;81.15;100498.63;101451;1288;139109;-75
2022/10/31 04:05:17;;;;;;;24.00;16.10;;;;;;;10.50;81.22;100500.28;101507;1289;107855;-74
2022/10/31 04:07:48;;;;;;;24.80;18.20;;;;;;;10.46;81.15;100503.88;101444;1289;139004;-74
2022/10/31 04:10:17;;;;;;;22.50;16.60;;;;;;;10.41;81.25;100503.66;101330;1288;106746;-74
2022/10/31 04:12:50;;;;;;;25.50;17.40;;;;;;;10.38;81.29;100501.30;99850;1289;138771;-75
2022/10/31 04:15:23;;;;;;;25.90;17.00;;;;;;;10.36;81.35;100499.46;100003;1281;109495;-75
2022/10/31 04:17:54;;;;;;;32.40;18.00;;;;;;;10.35;81.55;100496.70;99947;1289;107072;-74
2022/10/31 04:20:32;;;;;;;27.50;18.60;;;;;;;10.34;81.56;100497.44;99894;1288;141054;-75
2022/10/31 04:23:00;;;;;;;23.50;17.50;;;;;;;10.30;81.59;100501.02;99986;1282;107476;-75
2022/10/31 04:25:27;;;;;;;27.90;18.30;;;;;;;10.25;81.75;100498.36;99867;1289;138253;-74
2022/10/31 04:27:54;;;;;;;27.90;17.80;;;;;;;10.23;81.79;100503.64;99958;1285;108841;-74
2022/10/31 04:30:22;;;;;;;25.60;18.10;;;;;;;10.23;81.95;100508.33;99999;1285;105815;-74
2022/10/31 04:32:49;;;;;;;28.00;18.10;;;;;;;10.23;81.90;100508.50;100022;1283;96479;-74
2022/10/31 04:35:17;;;;;;;24.50;19.00;;;;;;;10.23;81.95;100510.58;99950;1289;107670;-74
2022/10/31 04:37:44;;;;;;;27.90;19.60;;;;;;;10.21;82.06;100506.61;99917;1280;137732;-74
2022/10/31 04:40:13;;;;;;;26.70;18.40;;;;;;;10.17;82.07;100507.39;99964;1287;110210;-75
2022/10/31 04:43:14;;;;;;;27.50;18.10;;;;;;;10.15;82.11;100505.21;99892;1294;140052;-74
2022/10/31 04:45:42;;;;;;;24.20;18.00;;;;;;;10.12;82.28;100507.53;99932;1289;96600;-74
2022/10/31 04:48:09;;;;;;;24.20;17.20;;;;;;;10.11;82.33;100510.00;99928;1281;107102;-74
2022/10/31 04:50:38;;;;;;;25.80;16.90;;;;;;;10.11;82.34;100507.59;99911;1285;139160;-75
2022/10/31 04:53:06;;;;;;;25.60;16.20;;;;;;;10.09;82.39;100510.92;99943;1275;109909;-73
2022/10/31 04:55:38;;;;;;;24.00;16.40;;;;;;;10.09;82.39;100516.33;99815;1288;139265;-73
2022/10/31 04:58:31;;;;;;;31.20;16.90;;;;;;;10.09;82.52;100517.55;99995;1285;94980;-74
2022/10/31 05:00:58;;;;;;;23.60;16.50;;;;;;;10.09;82.48;100519.79;99899;1282;139394;-74
2022/10/31 05:03:25;;;;;;;23.10;16.20;;;;;;;10.10;82.48;100519.41;99887;1289;96568;-74
2022/10/31 05:05:52;;;;;;;26.50;16.50;;;;;;;10.09;82.46;100523.08;99957;1289;109655;-74
2022/10/31 05:08:19;;;;;;;23.00;16.30;;;;;;;10.09;82.56;100520.83;99775;1289;138659;-75
2022/10/31 05:10:48;;;;;;;26.50;18.10;;;;;;;10.09;82.52;100522.57;100068;1288;96556;-74
2022/10/31 05:13:15;;;;;;;25.30;17.50;;;;;;;10.08;82.71;100524.52;99836;1289;138718;-75
2022/10/31 05:16:15;;;;;;;23.70;17.40;;;;;;;10.04;82.64;100521.98;99735;1285;96496;-74
2022/10/31 05:19:20;;;;;;;23.60;16.10;;;;;;;10.04;82.75;100523.22;99439;1285;138092;-74
2022/10/31 05:22:16;;;;;;;23.60;15.70;;;;;;;10.04;82.73;100523.04;99515;1285;107504;-74
2022/10/31 05:24:43;;;;;;;24.50;16.10;;;;;;;10.03;82.72;100521.33;99695;1282;138679;-73
2022/10/31 05:27:13;;;;;;;23.80;16.50;;;;;;;10.03;82.75;100519.93;100046;1288;106731;-73
2022/10/31 05:29:40;;;;;;;23.30;15.30;;;;;;;10.04;82.78;100520.60;100026;1284;96487;-74
2022/10/31 05:32:07;;;;;;;26.80;16.30;;;;;;;10.07;82.73;100527.14;99995;1288;138586;-73
2022/10/31 05:34:59;;;;;;;24.50;16.50;;;;;;;10.08;82.71;100530.08;99819;1287;107472;-74
2022/10/31 05:37:46;;;;;;;23.90;17.80;;;;;;;10.08;82.63;100530.41;99983;1288;137551;-74
2022/10/31 05:40:16;;;;;;;23.80;17.00;;;;;;;10.06;82.66;100531.51;99979;1288;107170;-74
2022/10/31 05:42:43;;;;;;;23.80;16.30;;;;;;;10.07;82.67;100534.10;101342;1297;139286;-78
2022/10/31 05:45:14;;;;;;;23.10;16.70;;;;;;;10.09;82.71;100535.78;101646;1296;110379;-75
2022/10/31 05:47:55;;;;;;;22.00;16.40;;;;;;;10.11;82.62;100536.23;101562;1289;106829;-75
2022/10/31 05:50:41;;;;;;;23.30;16.00;;;;;;;10.17;82.86;100527.73;101533;1296;138306;-68
2022/10/31 05:53:10;;;;;;;24.10;16.70;;;;;;;10.26;83.28;100527.02;101599;1289;107414;-70
2022/10/31 05:55:37;;;;;;;22.50;15.90;;;;;;;10.36;83.20;100524.84;101496;1288;138418;-69
2022/10/31 05:58:13;;;;;;;23.20;15.90;;;;;;;10.48;83.06;100526.59;101512;1293;110552;-76
2022/10/31 06:00:45;;;;;;;20.30;15.30;;;;;;;10.59;82.49;100528.55;100954;1296;138809;-75
2022/10/31 06:03:12;;;;;;;21.90;15.90;;;;;;;10.67;82.05;100529.39;100033;1289;96570;-75
2022/10/31 06:06:09;;;;;;;20.60;15.30;;;;;;;10.78;81.91;100532.36;99946;1288;107615;-76
2022/10/31 06:08:37;;;;;;;21.60;15.50;;;;;;;10.89;81.53;100534.65;99951;1292;138722;-75
2022/10/31 06:11:07;;;;;;;22.70;16.10;;;;;;;11.01;81.35;100538.14;100063;1289;111054;-74
2022/10/31 06:13:53;;;;;;;24.20;17.00;;;;;;;11.13;81.03;100541.27;99910;1288;137618;-73
2022/10/31 06:16:28;;;;;;;27.20;17.00;;;;;;;11.26;80.73;100544.17;100072;1281;96583;-73
2022/10/31 06:18:57;;;;;;;22.60;16.30;;;;;;;11.39;80.46;100544.14;99979;1291;139023;-72
2022/10/31 06:21:23;;;;;;;23.00;15.40;;;;;;;11.53;80.05;100548.92;100010;1281;96399;-74
2022/10/31 06:23:50;;;;;;;21.60;14.90;;;;;;;11.68;79.70;100549.48;100006;1289;109373;-75
2022/10/31 06:26:38;;;;;;;22.90;15.20;;;;;;;11.91;79.07;100548.10;99887;1292;138288;-77
2022/10/31 06:29:05;;;;;;;20.40;14.90;;;;;;;12.14;78.60;100547.15;100029;1289;96471;-74
2022/10/31 06:31:54;;;;;;;20.60;14.90;;;;;;;12.41;77.70;100544.45;99892;1287;137755;-75
2022/10/31 06:34:21;;;;;;;19.70;15.50;;;;;;;12.66;77.26;100542.17;100061;1288;96477;-74
2022/10/31 06:36:49;;;;;;;22.60;14.90;;;;;;;12.92;76.64;100544.35;100041;1295;137649;-76
2022/10/31 06:39:18;;;;;;;21.60;15.00;;;;;;;13.20;75.97;100548.73;100048;1287;107002;-73
2022/10/31 06:41:47;;;;;;;22.50;15.90;;;;;;;13.47;75.30;100547.37;100139;1296;96468;-78
2022/10/31 06:44:15;;;;;;;22.20;15.80;;;;;;;13.73;74.95;100549.11;99944;1288;137712;-79
2022/10/31 06:46:54;;;;;;;20.40;16.70;;;;;;;14.04;74.80;100549.58;99996;1288;96474;-76
2022/10/31 06:49:50;;;;;;;21.20;15.60;;;;;;;14.44;73.95;100549.14;99779;1295;137384;-74
2022/10/31 06:52:20;;;;;;;21.30;16.00;;;;;;;14.76;73.21;100551.95;99956;1289;110713;-78
2022/10/31 06:54:46;;;;;;;20.40;15.70;;;;;;;15.04;72.96;100550.85;99865;1287;138182;-82
2022/10/31 06:57:13;;;;;;;22.20;17.20;;;;;;;15.29;72.38;100551.80;99980;1295;106993;-77
2022/10/31 06:59:43;;;;;;;22.80;15.90;;;;;;;15.46;71.55;100555.23;99891;1295;97134;-78
2022/10/31 07:02:29;;;;;;;22.70;15.70;;;;;;;15.55;70.70;100554.22;99919;1283;139252;-79
2022/10/31 07:04:57;;;;;;;19.80;16.40;;;;;;;15.63;69.95;100551.42;99987;1289;108845;-78
2022/10/31 07:07:24;;;;;;;21.00;15.70;;;;;;;15.72;68.96;100552.94;99938;1289;137751;-77
2022/10/31 07:09:51;;;;;;;19.10;14.50;;;;;;;15.78;68.20;100552.27;100041;1294;107977;-77
2022/10/31 07:12:21;;;;;;;18.60;15.10;;;;;;;15.85;67.95;100546.89;100171;1288;96508;-81
2022/10/31 07:14:54;;;;;;;21.40;15.10;;;;;;;15.91;67.48;100549.90;100068;1284;109413;-78
2022/10/31 07:17:25;;;;;;;18.90;14.40;;;;;;;15.99;67.31;100553.02;100106;1288;107394;-79
2022/10/31 07:19:57;;;;;;;19.00;13.80;;;;;;;16.11;66.66;100556.07;100058;1288;138370;-83
2022/10/31 07:22:25;;;;;;;19.50;14.10;;;;;;;16.19;65.73;100555.34;100028;1288;107716;-79
2022/10/31 07:24:52;;;;;;;22.20;13.70;;;;;;;16.28;65.77;100554.85;99932;1289;139986;-83
2022/10/31 07:27:54;;;;;;;16.10;13.00;;;;;;;16.49;65.37;100552.92;99983;1282;109411;-80
2022/10/31 07:30:21;;;;;;;22.60;15.30;;;;;;;16.70;65.24;100552.02;100030;1288;107291;-80
2022/10/31 07:32:51;;;;;;;15.40;13.30;;;;;;;16.95;64.86;100554.58;100008;1281;96415;-82
2022/10/31 07:35:20;;;;;;;19.90;14.30;;;;;;;17.17;64.15;100551.41;99982;1281;106622;-82
2022/10/31 07:37:54;;;;;;;21.10;14.40;;;;;;;17.47;64.04;100553.24;99898;1281;140367;-79
2022/10/31 07:40:23;;;;;;;22.80;14.20;;;;;;;17.76;63.34;100552.70;100088;1287;109810;-79
2022/10/31 07:42:53;;;;;;;16.90;14.20;;;;;;;18.05;62.90;100545.42;99953;1295;138043;-70
2022/10/31 07:45:40;;;;;;;23.90;13.60;;;;;;;18.35;61.94;100549.97;99917;1295;96363;-70
2022/10/31 07:48:36;;;;;;;15.90;12.80;;;;;;;18.64;61.68;100551.27;99967;1289;137579;-69
2022/10/31 07:51:21;;;;;;;15.90;12.30;;;;;;;18.97;61.11;100554.84;100044;1286;96466;-69
2022/10/31 07:54:08;;;;;;;20.50;13.30;;;;;;;19.27;60.73;100552.98;100018;1288;111124;-68
2022/10/31 07:56:35;;;;;;;16.90;12.70;;;;;;;19.55;60.38;100554.89;99937;1291;139796;-68
2022/10/31 07:59:02;;;;;;;18.10;12.50;;;;;;;19.77;59.72;100558.77;100038;1289;96486;-70
2022/10/31 08:01:29;;;;;;;18.20;13.10;;;;;;;19.94;59.60;100558.90;99823;1281;137891;-69
2022/10/31 08:04:16;;;;;;;17.20;12.50;;;;;;;20.14;59.44;100553.86;100051;1288;96554;-77
2022/10/31 08:07:01;;;;;;;16.60;11.60;;;;;;;20.44;58.80;100557.84;99954;1287;138361;-79
2022/10/31 08:09:34;;;;;;;11.80;9.70;;;;;;;20.70;56.97;100559.06;99960;1281;107602;-79
2022/10/31 08:12:05;;;;;;;12.00;10.70;;;;;;;20.80;55.99;100558.29;99999;1288;96463;-78
2022/10/31 08:14:33;;;;;;;15.40;12.90;;;;;;;20.85;55.36;100562.44;99812;1288;140093;-79
2022/10/31 08:17:00;;;;;;;16.50;9.50;;;;;;;20.98;55.30;100561.45;99960;1289;96497;-78
2022/10/31 08:19:34;;;;;;;12.50;8.80;;;;;;;21.21;54.28;100563.55;99900;1287;138966;-79
2022/10/31 08:22:01;;;;;;;12.70;8.90;;;;;;;21.27;52.85;100563.35;100041;1281;107484;-88
2022/10/31 08:24:28;;;;;;;12.00;8.60;;;;;;;21.30;52.84;100563.32;99883;1295;139399;-78
2022/10/31 08:26:56;;;;;;;19.00;9.90;;;;;;;21.43;52.14;100561.67;100007;1295;107989;-76
2022/10/31 08:29:24;;;;;;;14.90;9.10;;;;;;;21.55;52.47;100565.91;99989;1287;96573;-73
2022/10/31 08:31:51;;;;;;;14.90;8.80;;;;;;;21.67;52.07;100566.80;99908;1286;137373;-73
2022/10/31 08:34:44;;;;;;;13.50;8.40;;;;;;;21.79;51.35;100571.93;99894;1293;107970;-72
2022/10/31 08:37:30;;;;;;;11.50;9.00;;;;;;;21.88;51.17;100574.84;99890;1287;137755;-73
2022/10/31 08:39:57;;;;;;;13.30;9.20;;;;;;;21.90;50.48;100575.70;100015;1288;106905;-74
2022/10/31 08:42:23;;;;;;;20.00;9.90;;;;;;;21.92;49.90;100574.85;99934;1280;96404;-75
2022/10/31 08:44:51;;;;;;;13.80;9.90;;;;;;;21.94;49.85;100574.90;100061;1286;111117;-73
2022/10/31 08:47:19;;;;;;;13.20;9.90;;;;;;;21.98;49.68;100580.25;100028;1296;107182;-75
2022/10/31 08:49:46;;;;;;;15.70;10.60;;;;;;;21.97;49.45;100582.06;99953;1289;137926;-75
2022/10/31 08:52:14;;;;;;;17.10;10.50;;;;;;;21.87;49.07;100584.60;99945;1282;109610;-74
2022/10/31 08:54:42;;;;;;;14.20;11.10;;;;;;;21.72;48.95;100586.77;99877;1281;139940;-75
2022/10/31 08:57:38;;;;;;;17.00;11.20;;;;;;;21.58;49.88;100589.27;100870;1296;110074;-75
2022/10/31 09:00:08;;;;;;;14.30;10.90;;;;;;;21.60;50.01;100587.48;101423;1289;106772;-75
2022/10/31 09:02:41;;;;;;;19.30;11.80;;;;;;;21.54;49.76;100583.83;100249;1288;139587;-73
2022/10/31 09:05:09;;;;;;;17.80;11.60;;;;;;;21.47;49.83;100579.56;100014;1281;108802;-75
2022/10/31 09:07:35;;;;;;;15.10;11.90;;;;;;;21.53;50.43;100581.83;99842;1289;139335;-73
2022/10/31 09:10:03;;;;;;;18.10;11.90;;;;;;;21.62;50.22;100579.70;99945;1289;111349;-73
2022/10/31 09:12:31;;;;;;;19.60;13.50;;;;;;;21.62;50.42;100580.11;99902;1295;137832;-72
2022/10/31 09:15:25;;;;;;;21.10;12.00;;;;;;;21.77;51.03;100579.38;99886;1281;96471;-74
2022/10/31 09:18:00;;;;;;;20.10;11.90;;;;;;;22.00;50.03;100583.27;99963;1285;106809;-73
2022/10/31 09:20:33;;;;;;;16.50;11.50;;;;;;;22.01;49.62;100585.31;99895;1282;138526;-72
2022/10/31 09:23:01;;;;;;;18.70;11.70;;;;;;;21.92;49.64;100582.81;100057;1286;110558;-73
2022/10/31 09:25:29;;;;;;;20.50;12.20;;;;;;;21.87;49.61;100585.52;99900;1281;137911;-73
2022/10/31 09:28:32;;;;;;;17.20;12.70;;;;;;;21.91;49.76;100586.64;99857;1288;96895;-69
2022/10/31 09:31:19;;;;;;;17.10;11.80;;;;;;;21.92;49.27;100584.29;99952;1289;137754;-68
2022/10/31 09:33:55;;;;;;;17.00;11.50;;;;;;;21.88;49.05;100580.14;100021;1281;96467;-71
2022/10/31 09:36:42;;;;;;;17.40;12.60;;;;;;;21.86;48.96;100584.48;99870;1281;137784;-71
2022/10/31 09:39:20;;;;;;;15.50;11.60;;;;;;;21.92;49.39;100587.45;99960;1281;108401;-71
2022/10/31 09:42:09;;;;;;;14.40;11.60;;;;;;;21.89;48.84;100590.30;100107;1287;96617;-72
2022/10/31 09:44:47;;;;;;;15.10;11.70;;;;;;;21.92;49.23;100590.98;99882;1288;137539;-73
2022/10/31 09:47:34;;;;;;;15.20;11.60;;;;;;;21.98;49.14;100584.16;99972;1288;96461;-72
2022/10/31 09:50:44;;;;;;;16.70;11.80;;;;;;;22.08;48.49;100593.02;99415;1295;137664;-73
2022/10/31 09:53:36;;;;;;;15.70;11.70;;;;;;;22.03;48.16;100595.64;99903;1282;107230;-73
2022/10/31 09:56:07;;;;;;;21.00;12.30;;;;;;;21.96;48.30;100593.52;99917;1281;137765;-72
2022/10/31 09:58:40;;;;;;;15.30;11.80;;;;;;;21.90;48.45;100591.50;99918;1282;109207;-72
2022/10/31 10:01:16;;;;;;;16.20;12.20;;;;;;;21.87;48.37;100591.17;99443;1281;139770;-70
2022/10/31 10:03:49;;;;;;;15.20;12.00;;;;;;;21.89;48.87;100591.89;101086;1281;110464;-73
2022/10/31 10:06:46;;;;;;;18.00;12.30;;;;;;;21.98;48.91;100587.69;101029;1288;137933;-70
2022/10/31 10:09:31;;;;;;;16.60;12.90;;;;;;;22.09;48.92;100589.02;101145;1281;94893;-77
2022/10/31 10:12:44;;;;;;;15.70;12.90;;;;;;;21.97;47.75;100588.83;99395;1285;107613;-71
2022/10/31 10:15:40;;;;;;;17.70;14.10;;;;;;;21.67;48.12;100583.40;99645;1279;98154;-72
2022/10/31 10:48:14;;;;;;;23.00;16.10;;;;;;;21.82;49.41;100566.02;99561;1281;107369;-74
2022/10/31 10:50:47;;;;;;;26.80;17.10;;;;;;;21.64;48.91;100572.86;99622;1288;137593;-75
2022/10/31 10:53:35;;;;;;;22.70;17.50;;;;;;;21.37;49.15;100572.50;99805;1281;110437;-79
2022/10/31 10:56:12;;;;;;;25.60;17.30;;;;;;;21.17;50.01;100571.12;99542;1288;179713;-71
2022/10/31 10:58:41;;;;;;;20.80;16.30;;;;;;;21.12;50.93;100563.98;99760;1285;96678;-70
2022/10/31 11:01:14;;;;;;;26.80;18.30;;;;;;;21.18;50.54;100569.82;101212;1289;138906;-70
2022/10/31 11:03:46;;;;;;;24.50;17.80;;;;;;;21.12;50.64;100561.88;101363;1295;94630;-71
2022/10/31 11:06:26;;;;;;;21.20;15.70;;;;;;;21.13;50.85;100567.66;101335;1275;109042;-69
2022/10/31 11:08:53;;;;;;;24.80;18.30;;;;;;;21.09;50.70;100568.33;101210;1285;137805;-73
2022/10/31 11:11:27;;;;;;;26.60;18.50;;;;;;;21.06;51.15;100559.85;101391;1288;94662;-69
2022/10/31 11:14:02;;;;;;;27.30;19.20;;;;;;;21.01;50.76;100562.72;99927;1282;137577;-71
2022/10/31 11:16:36;;;;;;;26.60;18.10;;;;;;;20.92;50.95;100565.83;99769;1288;96614;-71
2022/10/31 11:19:18;;;;;;;31.60;18.50;;;;;;;20.74;51.15;100566.38;99759;1282;137643;-71
2022/10/31 11:21:45;;;;;;;25.00;18.50;;;;;;;20.53;51.30;100571.89;99759;1289;108811;-72
2022/10/31 11:24:22;;;;;;;25.60;18.00;;;;;;;20.34;51.56;100566.81;99886;1289;96590;-71
2022/10/31 11:26:51;;;;;;;23.60;19.20;;;;;;;20.23;52.23;100569.11;99657;1282;137418;-69
2022/10/31 11:29:24;;;;;;;29.40;19.00;;;;;;;20.16;52.21;100571.38;101343;1288;94267;-68
2022/10/31 11:31:54;;;;;;;31.20;19.90;;;;;;;20.05;52.72;100568.03;101313;1282;138115;-71
2022/10/31 11:34:33;;;;;;;29.20;20.00;;;;;;;19.97;52.97;100570.34;101321;1288;107908;-70
2022/10/31 11:37:10;;;;;;;27.30;21.50;;;;;;;19.87;53.56;100572.57;101286;1287;139879;-72
2022/10/31 11:39:45;;;;;;;29.50;21.00;;;;;;;19.82;53.57;100570.44;101351;1285;107477;-72
2022/10/31 11:42:12;;;;;;;32.90;21.70;;;;;;;19.63;53.71;100567.95;101340;1288;95877;-72
2022/10/31 11:44:45;;;;;;;33.80;23.10;;;;;;;19.50;54.31;100571.27;101266;1288;138824;-72
2022/10/31 11:47:17;;;;;;;31.90;22.70;;;;;;;19.37;54.49;100569.98;100132;1289;105768;-72
2022/10/31 11:49:49;;;;;;;31.60;23.40;;;;;;;19.20;54.71;100573.88;99676;1295;137915;-72
2022/10/31 11:52:19;;;;;;;39.70;23.60;;;;;;;19.02;55.20;100570.59;99850;1289;106808;-73
2022/10/31 11:54:52;;;;;;;34.00;22.90;;;;;;;18.85;55.65;100564.59;99728;1289;139403;-73
2022/10/31 11:57:28;;;;;;;31.50;23.30;;;;;;;18.69;56.04;100562.39;99753;1282;110589;-74
2022/10/31 11:59:56;;;;;;;40.60;23.30;;;;;;;18.51;56.41;100562.21;99831;1280;107704;-71